Time;durP1;ratioP1;P1;durP2;ratioP2;P2;SDS_P1;SDS_P2;PMS_P1;PMS_P2;Temp;Humidity;BMP_temperature;BMP_pressure;BME280_temperature;BME280_humidity;BME280_pressure;Samples;Min_cycle;Max_cycle;Signal;HPM_P1;HPM_P2
2022/11/02 00:00:32;;;;;;;30.45;14.65;;;;;;;;;;4989029;28;20071;-59
2022/11/02 00:02:58;;;;;;;28.58;14.95;;;;;;;;;;4989707;28;20344;-59
2022/11/02 00:05:24;;;;;;;31.48;15.52;;;;;;;;;;4988971;28;20051;-58
2022/11/02 00:07:51;;;;;;;33.95;16.50;;;;;;;;;;4989487;28;20053;-59
2022/11/02 00:10:17;;;;;;;30.48;14.60;;;;;;;;;;4989164;28;20075;-59
2022/11/02 00:12:43;;;;;;;31.77;14.77;;;;;;;;;;4989622;28;20535;-59
2022/11/02 00:15:09;;;;;;;25.50;14.68;;;;;;;;;;4989318;28;20452;-59
2022/11/02 00:17:34;;;;;;;26.98;14.90;;;;;;;;;;4988921;28;20510;-59
2022/11/02 00:20:02;;;;;;;25.65;13.15;;;;;;;;;;4989882;28;20514;-59
2022/11/02 00:22:28;;;;;;;24.67;13.00;;;;;;;;;;4988830;28;20525;-60
2022/11/02 00:24:54;;;;;;;29.48;14.73;;;;;;;;;;4989408;28;20417;-60
2022/11/02 00:27:19;;;;;;;24.25;12.45;;;;;;;;;;4988834;28;20459;-60
2022/11/02 00:29:45;;;;;;;26.90;13.00;;;;;;;;;;4989346;28;20392;-59
2022/11/02 00:32:10;;;;;;;22.35;11.95;;;;;;;;;;4988779;28;20045;-60
2022/11/02 00:34:35;;;;;;;22.02;12.70;;;;;;;;;;4989007;28;20029;-59
2022/11/02 00:37:01;;;;;;;38.10;14.38;;;;;;;;;;4989120;28;20511;-60
2022/11/02 00:39:26;;;;;;;23.70;12.88;;;;;;;;;;4988824;28;20424;-59
2022/11/02 00:41:51;;;;;;;26.00;12.93;;;;;;;;;;4988713;28;20527;-62
2022/11/02 00:44:17;;;;;;;27.60;15.50;;;;;;;;;;4988535;28;20515;-61
2022/11/02 00:46:42;;;;;;;28.60;14.23;;;;;;;;;;4988986;28;20387;-61
2022/11/02 00:49:07;;;;;;;28.17;13.73;;;;;;;;;;4990216;28;20525;-62
2022/11/02 00:51:33;;;;;;;23.70;13.98;;;;;;;;;;4989075;28;20020;-59
2022/11/02 00:53:58;;;;;;;27.48;15.57;;;;;;;;;;4988844;28;20052;-59
2022/11/02 00:56:23;;;;;;;26.55;14.27;;;;;;;;;;4988625;28;20412;-59
2022/11/02 00:58:49;;;;;;;28.98;14.13;;;;;;;;;;4988666;28;20503;-59
2022/11/02 01:01:14;;;;;;;23.35;12.80;;;;;;;;;;4986359;28;20468;-60
2022/11/02 01:03:39;;;;;;;31.50;13.05;;;;;;;;;;4978932;28;20455;-60
2022/11/02 01:06:11;;;;;;;24.00;12.73;;;;;;;;;;4970278;28;20387;-59
2022/11/02 01:08:36;;;;;;;24.20;12.25;;;;;;;;;;4968493;28;20092;-59
2022/11/02 01:11:13;;;;;;;22.13;12.93;;;;;;;;;;4968794;28;20029;-60
2022/11/02 01:13:38;;;;;;;20.33;11.70;;;;;;;;;;4968807;28;20359;-59
2022/11/02 01:16:04;;;;;;;24.08;12.15;;;;;;;;;;4950943;28;20380;-59
2022/11/02 01:18:30;;;;;;;23.88;12.00;;;;;;;;;;4968727;28;20406;-59
2022/11/02 01:20:58;;;;;;;25.10;12.27;;;;;;;;;;4968807;28;20429;-59
2022/11/02 01:23:24;;;;;;;21.67;12.32;;;;;;;;;;4968845;28;20396;-60
2022/11/02 01:25:50;;;;;;;19.90;10.68;;;;;;;;;;4969019;28;20348;-60
2022/11/02 01:28:15;;;;;;;22.60;10.63;;;;;;;;;;4969077;28;20455;-59
2022/11/02 01:30:41;;;;;;;28.52;11.63;;;;;;;;;;4968930;28;20333;-60
2022/11/02 01:33:06;;;;;;;23.02;12.02;;;;;;;;;;4968407;28;20409;-60
2022/11/02 01:35:31;;;;;;;22.25;10.35;;;;;;;;;;4968864;28;20087;-59
2022/11/02 01:37:57;;;;;;;24.52;12.07;;;;;;;;;;4968641;28;20452;-60
2022/11/02 01:40:22;;;;;;;23.63;11.65;;;;;;;;;;4968148;28;20332;-60
2022/11/02 01:42:47;;;;;;;17.48;10.18;;;;;;;;;;4968552;28;20437;-65
2022/11/02 01:45:13;;;;;;;26.88;11.80;;;;;;;;;;4974123;28;20415;-59
2022/11/02 01:47:42;;;;;;;20.27;10.02;;;;;;;;;;4972468;28;20455;-59
2022/11/02 01:50:11;;;;;;;;;;;;;;;;;;4972855;28;20056;-61
2022/11/02 01:52:37;;;;;;;;;;;;;;;;;;4973498;28;20271;-59
2022/11/02 01:55:18;;;;;;;16.55;9.32;;;;;;;;;;4972265;28;20271;-60
2022/11/02 01:57:46;;;;;;;21.85;11.07;;;;;;;;;;4972966;28;20428;-59
2022/11/02 02:00:14;;;;;;;15.93;8.88;;;;;;;;;;4971757;28;20420;-59
2022/11/02 02:02:59;;;;;;;22.63;10.27;;;;;;;;;;4971829;28;20369;-59
2022/11/02 02:05:25;;;;;;;17.35;10.60;;;;;;;;;;4954252;28;20348;-59
2022/11/02 02:07:51;;;;;;;18.40;10.00;;;;;;;;;;4973364;28;20352;-59
2022/11/02 02:10:17;;;;;;;18.38;10.35;;;;;;;;;;4954235;28;20037;-59
2022/11/02 02:12:42;;;;;;;21.73;11.05;;;;;;;;;;4972365;28;20072;-59
2022/11/02 02:15:09;;;;;;;21.48;11.52;;;;;;;;;;4971811;28;20094;-60
2022/11/02 02:17:43;;;;;;;20.25;10.40;;;;;;;;;;4953979;28;20029;-59
2022/11/02 02:20:10;;;;;;;26.15;11.73;;;;;;;;;;4953951;28;20103;-59
2022/11/02 02:22:51;;;;;;;21.83;11.98;;;;;;;;;;4953612;28;20107;-60
2022/11/02 02:25:31;;;;;;;27.48;12.25;;;;;;;;;;4971619;28;20443;-59
2022/11/02 02:28:31;;;;;;;26.25;11.95;;;;;;;;;;4971354;28;20052;-59
2022/11/02 02:31:07;;;;;;;19.13;11.02;;;;;;;;;;4953697;28;20473;-60
2022/11/02 02:33:45;;;;;;;28.42;12.90;;;;;;;;;;4971105;28;20071;-59
2022/11/02 02:36:17;;;;;;;22.35;11.02;;;;;;;;;;4971800;28;20057;-59
2022/11/02 02:38:47;;;;;;;21.48;11.40;;;;;;;;;;4971809;28;20025;-60
2022/11/02 02:41:22;;;;;;;20.33;11.73;;;;;;;;;;4971032;28;20432;-59
2022/11/02 02:43:49;;;;;;;17.10;10.43;;;;;;;;;;4954956;28;20440;-59
2022/11/02 02:46:25;;;;;;;22.55;11.95;;;;;;;;;;4971146;28;20025;-59
2022/11/02 02:48:53;;;;;;;21.20;11.20;;;;;;;;;;4972116;28;20344;-59
2022/11/02 02:51:21;;;;;;;21.48;11.70;;;;;;;;;;4953301;28;20433;-59
2022/11/02 02:53:54;;;;;;;19.20;10.70;;;;;;;;;;4952951;28;20049;-59
2022/11/02 02:56:22;;;;;;;15.40;9.52;;;;;;;;;;4953925;28;20444;-59
2022/11/02 02:58:52;;;;;;;20.37;11.70;;;;;;;;;;4953256;28;20329;-58
2022/11/02 03:01:18;;;;;;;17.30;10.25;;;;;;;;;;4942149;28;20335;-59
2022/11/02 03:03:44;;;;;;;20.50;9.95;;;;;;;;;;4951406;28;20092;-58
2022/11/02 03:06:22;;;;;;;17.83;10.05;;;;;;;;;;4952353;28;20418;-59
2022/11/02 03:09:02;;;;;;;19.85;10.23;;;;;;;;;;4933745;28;20025;-59
2022/11/02 03:11:28;;;;;;;19.58;10.48;;;;;;;;;;4933533;28;20361;-60
2022/11/02 03:14:11;;;;;;;15.45;9.40;;;;;;;;;;4951328;28;20318;-60
2022/11/02 03:16:43;;;;;;;16.48;10.25;;;;;;;;;;4950977;28;20495;-59
2022/11/02 03:19:35;;;;;;;17.73;10.05;;;;;;;;;;4951247;28;20326;-59
2022/11/02 03:22:05;;;;;;;20.92;10.48;;;;;;;;;;4952348;28;20436;-59
2022/11/02 03:24:41;;;;;;;18.42;9.30;;;;;;;;;;4951129;28;20449;-59
2022/11/02 03:27:24;;;;;;;16.98;8.82;;;;;;;;;;4933466;28;20346;-60
2022/11/02 03:29:54;;;;;;;14.48;8.55;;;;;;;;;;4933094;28;20433;-59
2022/11/02 03:32:23;;;;;;;16.05;9.48;;;;;;;;;;4933940;28;20477;-59
2022/11/02 03:34:55;;;;;;;17.48;10.43;;;;;;;;;;4950692;28;20030;-60
2022/11/02 03:37:25;;;;;;;17.10;9.70;;;;;;;;;;4951437;28;20380;-59
2022/11/02 03:40:03;;;;;;;20.90;10.18;;;;;;;;;;4933109;28;20464;-59
2022/11/02 03:42:31;;;;;;;17.00;9.68;;;;;;;;;;4932919;28;20447;-59
2022/11/02 03:45:00;;;;;;;15.88;8.50;;;;;;;;;;4950685;28;20030;-59
2022/11/02 03:47:29;;;;;;;19.63;10.02;;;;;;;;;;4950516;28;20342;-59
2022/11/02 03:49:56;;;;;;;20.05;9.45;;;;;;;;;;4933309;28;20337;-59
2022/11/02 03:52:23;;;;;;;18.05;9.65;;;;;;;;;;4950487;28;20476;-59
2022/11/02 03:55:02;;;;;;;17.85;9.88;;;;;;;;;;4933060;28;20507;-59
2022/11/02 03:57:38;;;;;;;18.08;10.40;;;;;;;;;;4950417;28;20088;-59
2022/11/02 04:00:15;;;;;;;20.35;11.85;;;;;;;;;;4932867;28;20317;-58
2022/11/02 04:02:44;;;;;;;21.50;11.65;;;;;;;;;;4971212;28;20033;-59
2022/11/02 04:05:09;;;;;;;21.88;11.60;;;;;;;;;;4969783;28;20409;-60
2022/11/02 04:10:21;;;;;;;23.33;11.00;;;;;;;;;;4954566;28;20590;-59
2022/11/02 04:15:31;;;;;;;26.35;11.75;;;;;;;;;;4969447;28;20048;-59
2022/11/02 04:20:53;;;;;;;22.95;12.73;;;;;;;;;;4946597;28;20365;-59
2022/11/02 04:26:03;;;;;;;23.55;11.68;;;;;;;;;;4969876;28;20144;-59
2022/11/02 04:28:29;;;;;;;22.15;12.40;;;;;;;;;;4970085;28;20436;-58
2022/11/02 04:30:57;;;;;;;20.70;12.18;;;;;;;;;;4969448;28;20448;-60
2022/11/02 04:33:31;;;;;;;32.70;12.95;;;;;;;;;;4969438;28;20412;-59
2022/11/02 04:36:01;;;;;;;25.70;13.13;;;;;;;;;;4969086;28;20048;-59
2022/11/02 04:38:39;;;;;;;26.23;12.18;;;;;;;;;;4969316;28;20491;-58
2022/11/02 04:43:50;;;;;;;20.23;11.25;;;;;;;;;;4968969;28;20384;-59
2022/11/02 04:46:15;;;;;;;21.45;11.52;;;;;;;;;;4968936;28;20030;-60
2022/11/02 04:48:40;;;;;;;36.65;12.88;;;;;;;;;;4970104;28;20482;-59
2022/11/02 04:51:06;;;;;;;26.33;12.18;;;;;;;;;;4969218;28;20405;-59
2022/11/02 04:53:31;;;;;;;26.67;12.70;;;;;;;;;;4968699;28;20527;-60
2022/11/02 04:55:56;;;;;;;24.70;12.38;;;;;;;;;;4969414;28;20504;-60
2022/11/02 04:58:22;;;;;;;20.48;10.82;;;;;;;;;;4968809;28;20499;-59
2022/11/02 05:00:47;;;;;;;29.20;13.73;;;;;;;;;;4968541;28;20598;-59
2022/11/02 05:03:12;;;;;;;23.33;12.32;;;;;;;;;;4970502;28;20440;-61
2022/11/02 05:05:38;;;;;;;32.65;14.48;;;;;;;;;;4969426;28;20413;-59
2022/11/02 05:08:03;;;;;;;39.83;13.63;;;;;;;;;;4969412;28;20080;-59
2022/11/02 05:10:29;;;;;;;25.92;13.57;;;;;;;;;;4969245;28;20356;-59
2022/11/02 05:12:58;;;;;;;40.13;16.75;;;;;;;;;;4968996;28;20053;-59
2022/11/02 05:15:24;;;;;;;30.90;12.80;;;;;;;;;;4968647;28;20419;-59
2022/11/02 05:17:49;;;;;;;35.47;14.93;;;;;;;;;;4970418;28;20329;-59
2022/11/02 05:20:14;;;;;;;39.40;14.45;;;;;;;;;;4972453;28;20060;-59
2022/11/02 05:22:43;;;;;;;39.17;16.60;;;;;;;;;;4972541;28;20314;-61
2022/11/02 05:25:09;;;;;;;32.63;14.32;;;;;;;;;;4973704;28;20412;-60
2022/11/02 05:27:34;;;;;;;39.25;16.27;;;;;;;;;;4972584;28;20463;-59
2022/11/02 05:30:00;;;;;;;37.58;16.35;;;;;;;;;;4973131;28;20368;-59
2022/11/02 05:32:28;;;;;;;35.33;14.65;;;;;;;;;;4974057;28;20025;-61
2022/11/02 05:34:53;;;;;;;34.35;16.52;;;;;;;;;;4972655;28;20057;-62
2022/11/02 05:37:18;;;;;;;33.30;13.85;;;;;;;;;;4972314;28;20513;-62
2022/11/02 05:39:44;;;;;;;42.85;15.00;;;;;;;;;;4972905;28;20535;-61
2022/11/02 05:42:09;;;;;;;39.80;16.42;;;;;;;;;;4971938;28;20447;-61
2022/11/02 05:44:35;;;;;;;34.63;15.02;;;;;;;;;;4972176;28;20052;-62
2022/11/02 05:47:01;;;;;;;33.53;15.30;;;;;;;;;;4972565;28;20429;-61
2022/11/02 05:49:26;;;;;;;45.05;16.83;;;;;;;;;;4972412;28;20443;-61
2022/11/02 05:51:51;;;;;;;32.22;14.48;;;;;;;;;;4972318;28;20306;-61
2022/11/02 05:54:17;;;;;;;36.33;15.85;;;;;;;;;;4973329;28;20539;-59
2022/11/02 05:56:42;;;;;;;35.60;15.48;;;;;;;;;;4971957;28;20425;-59
2022/11/02 05:59:07;;;;;;;35.78;15.45;;;;;;;;;;4972352;28;20099;-59
2022/11/02 06:01:33;;;;;;;36.67;15.85;;;;;;;;;;4971594;28;20489;-59
2022/11/02 06:03:58;;;;;;;33.90;16.05;;;;;;;;;;4971686;28;20360;-59
2022/11/02 06:06:23;;;;;;;36.25;15.88;;;;;;;;;;4972090;28;20333;-59
2022/11/02 06:08:49;;;;;;;28.52;14.50;;;;;;;;;;4971929;28;20374;-61
2022/11/02 06:11:15;;;;;;;33.47;15.50;;;;;;;;;;4972374;28;20432;-59
2022/11/02 06:13:40;;;;;;;25.83;14.40;;;;;;;;;;4972346;28;20405;-59
2022/11/02 06:16:10;;;;;;;28.63;14.15;;;;;;;;;;4971975;28;20387;-59
2022/11/02 06:18:39;;;;;;;24.90;14.13;;;;;;;;;;4955210;28;20519;-60
2022/11/02 06:21:04;;;;;;;31.02;14.32;;;;;;;;;;4972333;28;20471;-60
2022/11/02 06:23:30;;;;;;;26.52;12.27;;;;;;;;;;4971670;28;20509;-60
2022/11/02 06:25:57;;;;;;;29.55;12.25;;;;;;;;;;4971450;28;20353;-59
2022/11/02 06:28:24;;;;;;;24.52;12.45;;;;;;;;;;4971301;28;20428;-61
2022/11/02 06:30:50;;;;;;;21.65;13.45;;;;;;;;;;4970663;28;20527;-59
2022/11/02 06:33:16;;;;;;;25.67;14.18;;;;;;;;;;4971433;28;20417;-60
2022/11/02 06:35:50;;;;;;;23.67;12.85;;;;;;;;;;4971117;28;20111;-59
2022/11/02 06:38:16;;;;;;;22.73;12.80;;;;;;;;;;4971290;28;20025;-60
2022/11/02 06:40:41;;;;;;;24.50;13.15;;;;;;;;;;4972021;28;20435;-59
2022/11/02 06:43:06;;;;;;;25.95;13.70;;;;;;;;;;4971514;28;20478;-59
2022/11/02 06:45:32;;;;;;;25.80;12.95;;;;;;;;;;4971283;28;20452;-60
2022/11/02 06:47:57;;;;;;;24.20;13.85;;;;;;;;;;4972900;28;20428;-60
2022/11/02 06:50:23;;;;;;;25.27;13.55;;;;;;;;;;4971510;28;20464;-59
2022/11/02 06:52:49;;;;;;;25.45;13.50;;;;;;;;;;4972179;28;20391;-59
2022/11/02 06:55:15;;;;;;;25.60;14.20;;;;;;;;;;4971003;28;20033;-59
2022/11/02 06:57:41;;;;;;;27.75;13.43;;;;;;;;;;4971183;28;20025;-60
2022/11/02 07:00:13;;;;;;;29.13;12.30;;;;;;;;;;4970348;28;20154;-59
2022/11/02 07:02:39;;;;;;;24.52;13.35;;;;;;;;;;4972633;28;20428;-59
2022/11/02 07:05:05;;;;;;;26.10;13.07;;;;;;;;;;4970793;28;20428;-59
2022/11/02 07:07:30;;;;;;;26.45;12.85;;;;;;;;;;4970978;28;20107;-59
2022/11/02 07:09:55;;;;;;;22.60;12.57;;;;;;;;;;4971126;28;20429;-59
2022/11/02 07:12:21;;;;;;;23.42;12.20;;;;;;;;;;4972348;28;20096;-59
2022/11/02 07:14:46;;;;;;;25.63;13.18;;;;;;;;;;4970645;28;20419;-59
2022/11/02 07:17:11;;;;;;;25.80;13.25;;;;;;;;;;4971069;28;20335;-60
2022/11/02 07:19:37;;;;;;;21.55;12.52;;;;;;;;;;4970707;28;20519;-59
2022/11/02 07:22:02;;;;;;;25.05;10.75;;;;;;;;;;4970701;28;20329;-59
2022/11/02 07:24:27;;;;;;;20.33;11.93;;;;;;;;;;4970608;28;20526;-59
2022/11/02 07:26:53;;;;;;;25.90;13.75;;;;;;;;;;4970390;28;20437;-60
2022/11/02 07:29:19;;;;;;;28.85;12.90;;;;;;;;;;4970244;28;20350;-59
2022/11/02 07:31:44;;;;;;;26.65;14.13;;;;;;;;;;4970712;28;20390;-59
2022/11/02 07:34:11;;;;;;;26.35;12.95;;;;;;;;;;4970282;28;20423;-59
2022/11/02 07:36:36;;;;;;;29.00;15.52;;;;;;;;;;4972127;28;20590;-59
2022/11/02 07:39:02;;;;;;;28.98;14.60;;;;;;;;;;4970310;28;20444;-59
2022/11/02 07:41:27;;;;;;;25.08;12.00;;;;;;;;;;4969069;28;20397;-61
2022/11/02 07:43:52;;;;;;;28.00;13.10;;;;;;;;;;4970901;28;20428;-60
2022/11/02 07:46:18;;;;;;;28.70;12.98;;;;;;;;;;4970357;28;20433;-59
2022/11/02 07:48:43;;;;;;;27.00;14.05;;;;;;;;;;4970417;28;20531;-59
2022/11/02 07:51:10;;;;;;;26.48;12.75;;;;;;;;;;4971318;28;20487;-59
2022/11/02 07:53:35;;;;;;;30.83;14.50;;;;;;;;;;4969841;28;20403;-59
2022/11/02 07:56:05;;;;;;;30.27;14.32;;;;;;;;;;4970304;28;20306;-60
2022/11/02 07:58:30;;;;;;;;;;;;;;;;;;4952985;28;20056;-59
2022/11/02 08:00:59;;;;;;;25.92;12.48;;;;;;;;;;4969709;28;19916;-59
2022/11/02 08:03:25;;;;;;;32.95;15.65;;;;;;;;;;4970068;28;20321;-59
2022/11/02 08:05:51;;;;;;;45.72;19.63;;;;;;;;;;4970549;28;20050;-59
2022/11/02 08:08:18;;;;;;;34.95;17.52;;;;;;;;;;4969927;28;20444;-60
2022/11/02 08:10:45;;;;;;;28.85;13.57;;;;;;;;;;4969365;28;20326;-60
2022/11/02 08:13:13;;;;;;;38.15;14.77;;;;;;;;;;4970413;28;20471;-60
2022/11/02 08:15:38;;;;;;;29.00;14.90;;;;;;;;;;4971354;28;20351;-59
2022/11/02 08:18:06;;;;;;;35.17;17.95;;;;;;;;;;4969604;28;20395;-59
2022/11/02 08:20:33;;;;;;;32.45;16.38;;;;;;;;;;4969734;28;20441;-59
2022/11/02 08:22:58;;;;;;;39.10;16.15;;;;;;;;;;4969092;28;20029;-59
2022/11/02 08:25:24;;;;;;;30.13;16.20;;;;;;;;;;4969976;28;20451;-59
2022/11/02 08:27:49;;;;;;;42.42;18.13;;;;;;;;;;4969555;28;20440;-59
2022/11/02 08:30:15;;;;;;;37.35;17.15;;;;;;;;;;4969523;28;20433;-59
2022/11/02 08:32:40;;;;;;;31.85;15.55;;;;;;;;;;4969526;28;20107;-62
2022/11/02 08:35:06;;;;;;;32.40;15.90;;;;;;;;;;4969471;28;20429;-59
2022/11/02 08:37:31;;;;;;;41.38;19.08;;;;;;;;;;4969082;28;20108;-59
2022/11/02 08:39:57;;;;;;;43.35;17.33;;;;;;;;;;4969130;28;20415;-59
2022/11/02 08:42:22;;;;;;;42.22;19.08;;;;;;;;;;4969219;28;20479;-59
2022/11/02 08:44:47;;;;;;;44.28;18.75;;;;;;;;;;4970476;28;20305;-60
2022/11/02 08:47:14;;;;;;;37.20;16.95;;;;;;;;;;4969447;28;20571;-59
2022/11/02 08:49:40;;;;;;;36.83;17.30;;;;;;;;;;4968925;28;20391;-60
2022/11/02 08:52:05;;;;;;;31.50;16.05;;;;;;;;;;4969491;28;20037;-59
2022/11/02 08:54:31;;;;;;;35.13;16.33;;;;;;;;;;4969052;28;20529;-59
2022/11/02 08:56:56;;;;;;;46.97;19.95;;;;;;;;;;4968903;28;20464;-60
2022/11/02 08:59:21;;;;;;;39.60;18.00;;;;;;;;;;4969587;28;20441;-59
2022/11/02 09:01:47;;;;;;;35.00;16.92;;;;;;;;;;4968849;28;20545;-59
2022/11/02 09:04:14;;;;;;;35.38;16.95;;;;;;;;;;4948420;28;21452;-59
2022/11/02 09:06:40;;;;;;;35.53;17.00;;;;;;;;;;4949696;28;20062;-59
2022/11/02 09:09:05;;;;;;;38.55;17.83;;;;;;;;;;4949369;28;20438;-59
2022/11/02 09:11:30;;;;;;;50.22;21.20;;;;;;;;;;4949496;28;20495;-59
2022/11/02 09:13:56;;;;;;;46.10;18.85;;;;;;;;;;4949486;28;20445;-58
2022/11/02 09:16:21;;;;;;;38.25;18.05;;;;;;;;;;4949220;28;20452;-59
2022/11/02 09:18:46;;;;;;;45.78;19.02;;;;;;;;;;4949311;28;20454;-59
2022/11/02 09:21:12;;;;;;;40.78;19.45;;;;;;;;;;4950351;28;20527;-60
2022/11/02 09:23:37;;;;;;;38.38;17.35;;;;;;;;;;4950180;28;20417;-59
2022/11/02 09:26:03;;;;;;;37.10;15.95;;;;;;;;;;4949279;28;20048;-60
2022/11/02 09:28:28;;;;;;;32.78;17.80;;;;;;;;;;4948929;28;20030;-59
2022/11/02 09:30:53;;;;;;;42.00;18.60;;;;;;;;;;4931391;28;20451;-59
2022/11/02 09:33:19;;;;;;;38.13;18.60;;;;;;;;;;4949241;28;20460;-60
2022/11/02 09:35:46;;;;;;;37.03;17.02;;;;;;;;;;4949389;28;20480;-59
2022/11/02 09:38:12;;;;;;;45.25;16.98;;;;;;;;;;4949207;28;20430;-59
2022/11/02 09:40:42;;;;;;;40.28;16.88;;;;;;;;;;4950069;28;20370;-60
2022/11/02 09:43:07;;;;;;;42.95;18.42;;;;;;;;;;4949196;28;20041;-60
2022/11/02 09:45:36;;;;;;;35.38;17.45;;;;;;;;;;4948957;28;20049;-59
2022/11/02 09:48:07;;;;;;;39.35;17.65;;;;;;;;;;4931618;28;20412;-60
2022/11/02 09:50:41;;;;;;;40.40;17.27;;;;;;;;;;4948855;28;20096;-59
2022/11/02 09:53:08;;;;;;;32.45;17.33;;;;;;;;;;4948802;28;20394;-60
2022/11/02 09:55:35;;;;;;;39.67;17.55;;;;;;;;;;4948909;28;20357;-59
2022/11/02 09:58:17;;;;;;;40.72;19.77;;;;;;;;;;4948682;28;20405;-59
2022/11/02 10:00:46;;;;;;;40.22;16.48;;;;;;;;;;4930532;28;20489;-61
2022/11/02 10:03:32;;;;;;;37.80;18.77;;;;;;;;;;4931038;28;20425;-59
2022/11/02 10:06:05;;;;;;;33.60;16.67;;;;;;;;;;4934628;28;20414;-60
2022/11/02 10:08:58;;;;;;;36.55;16.98;;;;;;;;;;4952678;28;20053;-59
2022/11/02 10:11:47;;;;;;;37.92;17.40;;;;;;;;;;4952431;28;20353;-60
2022/11/02 10:14:18;;;;;;;32.70;15.60;;;;;;;;;;4934804;28;20492;-59
2022/11/02 10:16:54;;;;;;;35.53;16.27;;;;;;;;;;4952325;28;20425;-60
2022/11/02 10:19:20;;;;;;;34.92;16.40;;;;;;;;;;4934864;28;20477;-59
2022/11/02 10:21:47;;;;;;;29.48;15.15;;;;;;;;;;4952789;28;20066;-60
2022/11/02 10:24:24;;;;;;;28.70;14.75;;;;;;;;;;4934638;28;20326;-60
2022/11/02 10:26:52;;;;;;;39.20;16.67;;;;;;;;;;4951905;28;20110;-60
2022/11/02 10:29:25;;;;;;;37.38;15.15;;;;;;;;;;4934444;28;20425;-60
2022/11/02 10:31:51;;;;;;;33.83;16.42;;;;;;;;;;4935101;28;20498;-60
2022/11/02 10:34:25;;;;;;;33.17;16.33;;;;;;;;;;4952894;28;20429;-59
2022/11/02 10:37:06;;;;;;;30.67;14.35;;;;;;;;;;4934393;28;20404;-60
2022/11/02 10:40:02;;;;;;;32.45;14.63;;;;;;;;;;4951881;28;20417;-61
2022/11/02 10:42:41;;;;;;;26.50;14.30;;;;;;;;;;4951792;28;20468;-61
2022/11/02 10:45:38;;;;;;;24.83;12.45;;;;;;;;;;4951658;28;20337;-60
2022/11/02 10:48:19;;;;;;;28.08;12.23;;;;;;;;;;4951934;28;20049;-62
2022/11/02 10:50:56;;;;;;;37.03;12.98;;;;;;;;;;4951466;28;20361;-59
2022/11/02 10:53:22;;;;;;;24.17;11.73;;;;;;;;;;4934047;28;20636;-60
2022/11/02 10:55:52;;;;;;;29.20;13.10;;;;;;;;;;4952261;28;20350;-59
2022/11/02 10:58:20;;;;;;;28.23;12.02;;;;;;;;;;4951422;28;20030;-59
2022/11/02 11:00:46;;;;;;;29.05;12.85;;;;;;;;;;4950921;28;20364;-59
2022/11/02 11:03:13;;;;;;;25.42;13.10;;;;;;;;;;4952112;28;20377;-60
2022/11/02 11:05:56;;;;;;;25.10;12.77;;;;;;;;;;4952416;28;20445;-59
2022/11/02 11:08:28;;;;;;;20.63;10.45;;;;;;;;;;4933759;28;20437;-60
2022/11/02 11:10:53;;;;;;;28.17;11.15;;;;;;;;;;4951144;28;20424;-60
2022/11/02 11:13:22;;;;;;;24.67;9.65;;;;;;;;;;4951429;28;20417;-59
2022/11/02 11:15:50;;;;;;;14.32;7.40;;;;;;;;;;4933972;28;20640;-60
2022/11/02 11:18:18;;;;;;;19.33;8.48;;;;;;;;;;4951302;28;20085;-60
2022/11/02 11:20:43;;;;;;;20.60;8.45;;;;;;;;;;4949842;28;20461;-60
2022/11/02 11:23:20;;;;;;;19.08;7.70;;;;;;;;;;4933554;28;20392;-60
2022/11/02 11:26:04;;;;;;;19.00;9.20;;;;;;;;;;4950807;28;20049;-59
2022/11/02 11:28:52;;;;;;;16.10;6.38;;;;;;;;;;4950788;28;20556;-61
2022/11/02 11:31:18;;;;;;;14.40;6.93;;;;;;;;;;4952250;28;20380;-60
2022/11/02 11:33:50;;;;;;;14.32;6.47;;;;;;;;;;4933602;28;20350;-60
2022/11/02 11:36:27;;;;;;;14.30;6.35;;;;;;;;;;4950206;28;20424;-60
2022/11/02 11:38:55;;;;;;;15.05;5.80;;;;;;;;;;4933383;28;20407;-60
2022/11/02 11:41:20;;;;;;;14.82;5.50;;;;;;;;;;4933141;28;20390;-60
2022/11/02 11:43:46;;;;;;;11.27;6.18;;;;;;;;;;4933202;28;20692;-60
2022/11/02 11:46:13;;;;;;;8.27;4.03;;;;;;;;;;4950779;28;20488;-61
2022/11/02 11:48:40;;;;;;;11.35;5.70;;;;;;;;;;4933657;28;20033;-59
2022/11/02 11:51:28;;;;;;;8.60;4.82;;;;;;;;;;4950466;28;20057;-61
2022/11/02 11:54:13;;;;;;;7.03;3.58;;;;;;;;;;4950316;28;20373;-60
2022/11/02 11:56:38;;;;;;;8.15;4.32;;;;;;;;;;4950798;28;20483;-60
2022/11/02 11:59:04;;;;;;;16.05;5.45;;;;;;;;;;4951049;28;20413;-60
2022/11/02 12:01:38;;;;;;;10.18;4.85;;;;;;;;;;4950154;28;20392;-60
2022/11/02 12:04:04;;;;;;;10.02;5.00;;;;;;;;;;4950042;28;20049;-60
2022/11/02 12:06:31;;;;;;;9.98;4.72;;;;;;;;;;4951140;28;20504;-61
2022/11/02 12:09:02;;;;;;;14.25;4.47;;;;;;;;;;4932541;28;20072;-60
2022/11/02 12:11:34;;;;;;;8.65;4.18;;;;;;;;;;4951717;28;20417;-61
2022/11/02 12:14:22;;;;;;;8.90;4.40;;;;;;;;;;4907966;28;20069;-61
2022/11/02 12:17:09;;;;;;;9.63;3.77;;;;;;;;;;4912092;28;20438;-60
2022/11/02 12:19:50;;;;;;;7.85;3.97;;;;;;;;;;4911465;28;20590;-59
2022/11/02 12:22:34;;;;;;;7.57;3.80;;;;;;;;;;4893617;28;20434;-59
2022/11/02 12:25:16;;;;;;;5.00;3.53;;;;;;;;;;4894224;28;20096;-60
2022/11/02 12:28:14;;;;;;;6.55;3.85;;;;;;;;;;4910848;28;20334;-61
2022/11/02 12:31:01;;;;;;;7.53;3.40;;;;;;;;;;4910103;28;20038;-60
2022/11/02 12:33:58;;;;;;;8.15;3.42;;;;;;;;;;4893717;28;20319;-60
2022/11/02 12:36:36;;;;;;;10.95;3.72;;;;;;;;;;4910381;28;20541;-60
2022/11/02 12:39:07;;;;;;;7.57;3.53;;;;;;;;;;4911195;28;20390;-61
2022/11/02 12:41:44;;;;;;;10.80;4.50;;;;;;;;;;4911323;28;20350;-61
2022/11/02 12:44:32;;;;;;;9.13;4.05;;;;;;;;;;4893839;28;20498;-60
2022/11/02 12:47:33;;;;;;;8.45;3.53;;;;;;;;;;4911615;28;20465;-59
2022/11/02 12:50:20;;;;;;;6.25;3.35;;;;;;;;;;4911370;28;20445;-59
2022/11/02 12:52:54;;;;;;;8.10;3.40;;;;;;;;;;4910660;28;20470;-60
2022/11/02 12:55:23;;;;;;;5.57;3.20;;;;;;;;;;4910973;28;20373;-59
2022/11/02 12:57:48;;;;;;;;;;;;;;;;;;4894586;28;20030;-60
2022/11/02 13:00:19;;;;;;;8.40;2.97;;;;;;;;;;4894572;28;20359;-60
2022/11/02 13:02:56;;;;;;;7.82;3.70;;;;;;;;;;4930003;28;20424;-60
2022/11/02 13:05:26;;;;;;;5.47;3.25;;;;;;;;;;4912340;28;20068;-60
2022/11/02 13:08:00;;;;;;;6.82;3.03;;;;;;;;;;4912599;28;20349;-61
2022/11/02 13:10:29;;;;;;;7.13;3.05;;;;;;;;;;4913144;28;20309;-60
2022/11/02 13:12:58;;;;;;;4.35;2.92;;;;;;;;;;4930300;28;20044;-60
2022/11/02 13:15:25;;;;;;;5.03;2.97;;;;;;;;;;4912464;28;20315;-61
2022/11/02 13:18:03;;;;;;;5.40;3.15;;;;;;;;;;4929865;28;20512;-60
2022/11/02 13:20:34;;;;;;;4.80;2.72;;;;;;;;;;4930528;28;20038;-60
2022/11/02 13:23:21;;;;;;;6.00;3.10;;;;;;;;;;4912726;28;20453;-60
2022/11/02 13:25:53;;;;;;;5.45;2.80;;;;;;;;;;4930051;28;20400;-59
2022/11/02 13:28:29;;;;;;;4.93;2.90;;;;;;;;;;4912353;28;20385;-60
2022/11/02 13:30:54;;;;;;;6.53;2.85;;;;;;;;;;4912776;28;20132;-60
2022/11/02 13:33:25;;;;;;;8.60;2.72;;;;;;;;;;4929927;28;20026;-61
2022/11/02 13:35:52;;;;;;;7.25;3.10;;;;;;;;;;4930681;28;20173;-60
2022/11/02 13:38:38;;;;;;;8.10;3.15;;;;;;;;;;4930500;28;20030;-60
2022/11/02 13:41:35;;;;;;;10.25;2.67;;;;;;;;;;4933814;28;20413;-59
2022/11/02 13:44:25;;;;;;;5.63;2.92;;;;;;;;;;4933512;28;20362;-60
2022/11/02 13:47:06;;;;;;;7.13;3.05;;;;;;;;;;4933478;28;20030;-59
2022/11/02 13:49:43;;;;;;;6.28;3.08;;;;;;;;;;4935497;28;20299;-59
2022/11/02 13:52:11;;;;;;;5.13;2.55;;;;;;;;;;4933342;28;20449;-59
2022/11/02 13:54:44;;;;;;;4.17;2.63;;;;;;;;;;4916029;28;20468;-59
2022/11/02 13:57:30;;;;;;;10.20;4.40;;;;;;;;;;4915905;28;20515;-60
2022/11/02 13:59:56;;;;;;;6.63;2.75;;;;;;;;;;4934747;28;20441;-59
2022/11/02 14:02:23;;;;;;;4.63;2.97;;;;;;;;;;4932980;28;20524;-60
2022/11/02 14:04:48;;;;;;;5.70;2.75;;;;;;;;;;4932928;28;20453;-59
2022/11/02 14:07:40;;;;;;;7.93;3.05;;;;;;;;;;4933332;28;20553;-60
2022/11/02 14:10:16;;;;;;;9.23;3.67;;;;;;;;;;4910612;28;20434;-60
2022/11/02 14:12:46;;;;;;;5.57;2.70;;;;;;;;;;4932867;28;20455;-59
2022/11/02 14:15:11;;;;;;;8.52;3.35;;;;;;;;;;4933228;28;20038;-61
2022/11/02 14:17:52;;;;;;;6.57;3.20;;;;;;;;;;4933151;28;20599;-59
2022/11/02 14:20:46;;;;;;;9.23;2.88;;;;;;;;;;4933123;28;20434;-59
2022/11/02 14:23:12;;;;;;;5.30;2.92;;;;;;;;;;4914812;28;20031;-59
2022/11/02 14:25:44;;;;;;;7.45;3.35;;;;;;;;;;4932564;28;20416;-59
2022/11/02 14:28:33;;;;;;;7.70;3.50;;;;;;;;;;4932664;28;20532;-60
2022/11/02 14:31:04;;;;;;;12.57;3.65;;;;;;;;;;4915094;28;20120;-59
2022/11/02 14:33:44;;;;;;;5.93;3.20;;;;;;;;;;4933038;28;20426;-59
2022/11/02 14:36:16;;;;;;;7.45;3.88;;;;;;;;;;4932884;28;20466;-59
2022/11/02 14:39:09;;;;;;;11.23;4.50;;;;;;;;;;4932261;28;20385;-60
2022/11/02 14:41:46;;;;;;;10.10;4.70;;;;;;;;;;4932338;28;20385;-60
2022/11/02 14:44:39;;;;;;;8.82;4.53;;;;;;;;;;4933280;28;20426;-60
2022/11/02 14:47:08;;;;;;;9.38;4.25;;;;;;;;;;4934856;28;20065;-59
2022/11/02 14:49:37;;;;;;;10.38;3.92;;;;;;;;;;4914507;28;20057;-59
2022/11/02 14:52:12;;;;;;;10.00;3.50;;;;;;;;;;4932852;28;20034;-59
2022/11/02 14:54:45;;;;;;;10.15;3.70;;;;;;;;;;4933930;28;20326;-60